sensor_id;sensor_type;location;lat;lon;timestamp;P1;durP1;ratioP1;P2;durP2;ratioP2
14613;SDS011;7393;51.446;6.800;2023-12-07T00:01:22;23.27;;;16.90;;
14613;SDS011;7393;51.446;6.800;2023-12-07T00:03:49;21.83;;;15.73;;
14613;SDS011;7393;51.446;6.800;2023-12-07T00:06:16;22.23;;;15.70;;
14613;SDS011;7393;51.446;6.800;2023-12-07T00:08:42;21.47;;;15.07;;
14613;SDS011;7393;51.446;6.800;2023-12-07T00:11:10;23.57;;;16.83;;
14613;SDS011;7393;51.446;6.800;2023-12-07T00:13:37;23.20;;;15.97;;
14613;SDS011;7393;51.446;6.800;2023-12-07T00:16:04;27.50;;;16.93;;
14613;SDS011;7393;51.446;6.800;2023-12-07T00:18:31;23.03;;;16.93;;
14613;SDS011;7393;51.446;6.800;2023-12-07T00:20:58;24.83;;;17.27;;
14613;SDS011;7393;51.446;6.800;2023-12-07T00:23:25;25.73;;;18.83;;
14613;SDS011;7393;51.446;6.800;2023-12-07T00:25:51;25.10;;;16.77;;
14613;SDS011;7393;51.446;6.800;2023-12-07T00:28:19;25.93;;;17.27;;
14613;SDS011;7393;51.446;6.800;2023-12-07T00:30:46;23.07;;;16.57;;
14613;SDS011;7393;51.446;6.800;2023-12-07T00:33:13;23.60;;;15.37;;
14613;SDS011;7393;51.446;6.800;2023-12-07T00:35:42;22.20;;;16.13;;
14613;SDS011;7393;51.446;6.800;2023-12-07T00:38:08;19.53;;;15.00;;
14613;SDS011;7393;51.446;6.800;2023-12-07T00:40:35;18.50;;;13.43;;
14613;SDS011;7393;51.446;6.800;2023-12-07T00:43:04;16.53;;;13.13;;
14613;SDS011;7393;51.446;6.800;2023-12-07T00:45:33;19.77;;;14.10;;
14613;SDS011;7393;51.446;6.800;2023-12-07T00:48:00;18.20;;;13.57;;
14613;SDS011;7393;51.446;6.800;2023-12-07T00:50:26;17.43;;;13.17;;
14613;SDS011;7393;51.446;6.800;2023-12-07T00:52:52;19.20;;;13.50;;
14613;SDS011;7393;51.446;6.800;2023-12-07T00:55:19;17.47;;;13.43;;
14613;SDS011;7393;51.446;6.800;2023-12-07T00:57:46;17.13;;;12.47;;
14613;SDS011;7393;51.446;6.800;2023-12-07T01:00:13;19.20;;;12.63;;
14613;SDS011;7393;51.446;6.800;2023-12-07T01:02:42;17.27;;;12.60;;
14613;SDS011;7393;51.446;6.800;2023-12-07T01:05:08;16.97;;;12.47;;
14613;SDS011;7393;51.446;6.800;2023-12-07T01:07:35;17.23;;;12.47;;
14613;SDS011;7393;51.446;6.800;2023-12-07T01:10:02;16.97;;;12.47;;
14613;SDS011;7393;51.446;6.800;2023-12-07T01:12:29;18.20;;;12.13;;
14613;SDS011;7393;51.446;6.800;2023-12-07T01:14:56;19.63;;;12.73;;
14613;SDS011;7393;51.446;6.800;2023-12-07T01:17:23;17.63;;;12.63;;
14613;SDS011;7393;51.446;6.800;2023-12-07T01:19:51;15.23;;;12.10;;
14613;SDS011;7393;51.446;6.800;2023-12-07T01:22:18;17.03;;;12.17;;
14613;SDS011;7393;51.446;6.800;2023-12-07T01:24:45;20.27;;;13.10;;
14613;SDS011;7393;51.446;6.800;2023-12-07T01:27:13;15.33;;;12.23;;
14613;SDS011;7393;51.446;6.800;2023-12-07T01:29:39;17.57;;;11.80;;
14613;SDS011;7393;51.446;6.800;2023-12-07T01:32:06;18.27;;;13.13;;
14613;SDS011;7393;51.446;6.800;2023-12-07T01:34:33;19.83;;;13.23;;
14613;SDS011;7393;51.446;6.800;2023-12-07T01:37:02;19.13;;;12.83;;
14613;SDS011;7393;51.446;6.800;2023-12-07T01:39:29;20.73;;;13.73;;
14613;SDS011;7393;51.446;6.800;2023-12-07T01:41:55;19.60;;;13.73;;
14613;SDS011;7393;51.446;6.800;2023-12-07T01:44:22;20.93;;;14.23;;
14613;SDS011;7393;51.446;6.800;2023-12-07T01:46:49;20.80;;;13.33;;
14613;SDS011;7393;51.446;6.800;2023-12-07T01:49:16;20.93;;;13.13;;
14613;SDS011;7393;51.446;6.800;2023-12-07T01:51:42;20.33;;;13.27;;
14613;SDS011;7393;51.446;6.800;2023-12-07T01:54:10;19.27;;;13.70;;
14613;SDS011;7393;51.446;6.800;2023-12-07T01:56:37;17.47;;;12.87;;
14613;SDS011;7393;51.446;6.800;2023-12-07T01:59:04;20.43;;;12.60;;
14613;SDS011;7393;51.446;6.800;2023-12-07T02:01:31;16.63;;;12.97;;
14613;SDS011;7393;51.446;6.800;2023-12-07T02:03:58;19.17;;;13.67;;
14613;SDS011;7393;51.446;6.800;2023-12-07T02:06:25;16.07;;;12.53;;
14613;SDS011;7393;51.446;6.800;2023-12-07T02:08:53;18.67;;;12.80;;
14613;SDS011;7393;51.446;6.800;2023-12-07T02:11:22;20.43;;;14.00;;
14613;SDS011;7393;51.446;6.800;2023-12-07T02:13:49;19.57;;;13.03;;
14613;SDS011;7393;51.446;6.800;2023-12-07T02:16:28;20.40;;;13.83;;
14613;SDS011;7393;51.446;6.800;2023-12-07T02:18:59;20.07;;;14.43;;
14613;SDS011;7393;51.446;6.800;2023-12-07T02:21:37;22.43;;;13.77;;
14613;SDS011;7393;51.446;6.800;2023-12-07T02:24:07;21.53;;;14.73;;
14613;SDS011;7393;51.446;6.800;2023-12-07T02:26:37;22.17;;;14.43;;
14613;SDS011;7393;51.446;6.800;2023-12-07T02:29:04;20.87;;;14.47;;
14613;SDS011;7393;51.446;6.800;2023-12-07T02:31:31;19.80;;;13.93;;
14613;SDS011;7393;51.446;6.800;2023-12-07T02:33:58;22.33;;;15.17;;
14613;SDS011;7393;51.446;6.800;2023-12-07T02:36:26;22.43;;;13.90;;
14613;SDS011;7393;51.446;6.800;2023-12-07T02:38:55;20.83;;;14.47;;
14613;SDS011;7393;51.446;6.800;2023-12-07T02:41:26;20.70;;;14.23;;
14613;SDS011;7393;51.446;6.800;2023-12-07T02:43:55;19.43;;;14.67;;
14613;SDS011;7393;51.446;6.800;2023-12-07T02:46:23;19.30;;;14.20;;
14613;SDS011;7393;51.446;6.800;2023-12-07T02:48:50;18.23;;;13.73;;
14613;SDS011;7393;51.446;6.800;2023-12-07T02:51:16;18.63;;;13.93;;
14613;SDS011;7393;51.446;6.800;2023-12-07T02:53:43;20.73;;;14.47;;
14613;SDS011;7393;51.446;6.800;2023-12-07T02:56:10;21.47;;;14.40;;
14613;SDS011;7393;51.446;6.800;2023-12-07T02:58:37;21.80;;;15.60;;
14613;SDS011;7393;51.446;6.800;2023-12-07T03:01:05;22.10;;;14.77;;
14613;SDS011;7393;51.446;6.800;2023-12-07T03:03:33;22.13;;;15.03;;
14613;SDS011;7393;51.446;6.800;2023-12-07T03:05:59;23.00;;;14.67;;
14613;SDS011;7393;51.446;6.800;2023-12-07T03:08:26;19.57;;;14.17;;
14613;SDS011;7393;51.446;6.800;2023-12-07T03:10:53;24.33;;;15.67;;
14613;SDS011;7393;51.446;6.800;2023-12-07T03:13:20;23.10;;;16.67;;
14613;SDS011;7393;51.446;6.800;2023-12-07T03:15:47;23.73;;;16.70;;
14613;SDS011;7393;51.446;6.800;2023-12-07T03:18:15;33.07;;;20.33;;
14613;SDS011;7393;51.446;6.800;2023-12-07T03:20:42;32.33;;;19.47;;
14613;SDS011;7393;51.446;6.800;2023-12-07T03:23:09;30.13;;;19.57;;
14613;SDS011;7393;51.446;6.800;2023-12-07T03:25:36;33.93;;;20.77;;
14613;SDS011;7393;51.446;6.800;2023-12-07T03:28:02;37.57;;;21.60;;
14613;SDS011;7393;51.446;6.800;2023-12-07T03:30:29;40.40;;;23.10;;
14613;SDS011;7393;51.446;6.800;2023-12-07T03:32:56;41.20;;;23.33;;
14613;SDS011;7393;51.446;6.800;2023-12-07T03:35:24;41.50;;;23.23;;
14613;SDS011;7393;51.446;6.800;2023-12-07T03:37:51;37.97;;;23.53;;
14613;SDS011;7393;51.446;6.800;2023-12-07T03:40:18;42.60;;;23.60;;
14613;SDS011;7393;51.446;6.800;2023-12-07T03:42:44;43.33;;;24.63;;
14613;SDS011;7393;51.446;6.800;2023-12-07T03:45:11;39.93;;;23.77;;
14613;SDS011;7393;51.446;6.800;2023-12-07T03:47:38;37.00;;;23.30;;
14613;SDS011;7393;51.446;6.800;2023-12-07T03:50:05;37.70;;;23.77;;
14613;SDS011;7393;51.446;6.800;2023-12-07T03:52:33;39.60;;;22.67;;
14613;SDS011;7393;51.446;6.800;2023-12-07T03:55:00;38.33;;;22.50;;
14613;SDS011;7393;51.446;6.800;2023-12-07T03:57:27;36.10;;;22.83;;
14613;SDS011;7393;51.446;6.800;2023-12-07T03:59:54;37.77;;;22.27;;
14613;SDS011;7393;51.446;6.800;2023-12-07T04:02:21;38.43;;;22.80;;
14613;SDS011;7393;51.446;6.800;2023-12-07T04:04:49;39.60;;;22.57;;
14613;SDS011;7393;51.446;6.800;2023-12-07T04:07:15;40.53;;;24.90;;
14613;SDS011;7393;51.446;6.800;2023-12-07T04:09:43;38.60;;;23.80;;
14613;SDS011;7393;51.446;6.800;2023-12-07T04:12:10;38.17;;;22.93;;
14613;SDS011;7393;51.446;6.800;2023-12-07T04:14:37;34.83;;;22.43;;
14613;SDS011;7393;51.446;6.800;2023-12-07T04:17:04;42.83;;;24.17;;
14613;SDS011;7393;51.446;6.800;2023-12-07T04:19:31;38.67;;;23.20;;
14613;SDS011;7393;51.446;6.800;2023-12-07T04:21:57;36.73;;;22.07;;
14613;SDS011;7393;51.446;6.800;2023-12-07T04:24:24;33.27;;;21.30;;
14613;SDS011;7393;51.446;6.800;2023-12-07T04:26:52;34.50;;;20.63;;
14613;SDS011;7393;51.446;6.800;2023-12-07T04:29:19;33.97;;;21.33;;
14613;SDS011;7393;51.446;6.800;2023-12-07T04:31:46;37.70;;;22.83;;
14613;SDS011;7393;51.446;6.800;2023-12-07T04:34:12;37.33;;;22.87;;
14613;SDS011;7393;51.446;6.800;2023-12-07T04:36:39;38.67;;;23.30;;
14613;SDS011;7393;51.446;6.800;2023-12-07T04:39:06;34.37;;;21.70;;
14613;SDS011;7393;51.446;6.800;2023-12-07T04:41:33;39.70;;;23.87;;
14613;SDS011;7393;51.446;6.800;2023-12-07T04:44:01;39.93;;;22.77;;
14613;SDS011;7393;51.446;6.800;2023-12-07T04:46:28;36.03;;;21.80;;
14613;SDS011;7393;51.446;6.800;2023-12-07T04:48:55;32.73;;;20.37;;
14613;SDS011;7393;51.446;6.800;2023-12-07T04:51:21;31.90;;;20.90;;
14613;SDS011;7393;51.446;6.800;2023-12-07T04:53:48;34.40;;;21.00;;
14613;SDS011;7393;51.446;6.800;2023-12-07T04:56:15;32.63;;;21.30;;
14613;SDS011;7393;51.446;6.800;2023-12-07T04:58:42;35.27;;;20.27;;
14613;SDS011;7393;51.446;6.800;2023-12-07T05:01:10;32.33;;;20.13;;
14613;SDS011;7393;51.446;6.800;2023-12-07T05:03:37;33.27;;;19.67;;
14613;SDS011;7393;51.446;6.800;2023-12-07T05:06:04;33.77;;;20.93;;
14613;SDS011;7393;51.446;6.800;2023-12-07T05:08:32;33.00;;;20.47;;
14613;SDS011;7393;51.446;6.800;2023-12-07T05:10:59;34.43;;;20.60;;
14613;SDS011;7393;51.446;6.800;2023-12-07T05:13:26;30.87;;;21.17;;
14613;SDS011;7393;51.446;6.800;2023-12-07T05:15:52;39.13;;;23.80;;
14613;SDS011;7393;51.446;6.800;2023-12-07T05:18:21;40.17;;;23.67;;
14613;SDS011;7393;51.446;6.800;2023-12-07T05:20:47;40.10;;;24.70;;
14613;SDS011;7393;51.446;6.800;2023-12-07T05:23:14;40.77;;;24.83;;
14613;SDS011;7393;51.446;6.800;2023-12-07T05:25:41;39.37;;;23.60;;
14613;SDS011;7393;51.446;6.800;2023-12-07T05:28:08;39.10;;;24.10;;
14613;SDS011;7393;51.446;6.800;2023-12-07T05:30:35;38.90;;;24.13;;
14613;SDS011;7393;51.446;6.800;2023-12-07T05:33:02;39.60;;;24.17;;
14613;SDS011;7393;51.446;6.800;2023-12-07T05:35:31;40.97;;;24.10;;
14613;SDS011;7393;51.446;6.800;2023-12-07T05:37:57;40.93;;;24.73;;
14613;SDS011;7393;51.446;6.800;2023-12-07T05:40:24;40.57;;;25.07;;
14613;SDS011;7393;51.446;6.800;2023-12-07T05:42:52;42.03;;;24.37;;
14613;SDS011;7393;51.446;6.800;2023-12-07T05:45:19;39.43;;;23.83;;
14613;SDS011;7393;51.446;6.800;2023-12-07T05:47:45;36.00;;;23.80;;
14613;SDS011;7393;51.446;6.800;2023-12-07T05:50:12;38.73;;;23.73;;
14613;SDS011;7393;51.446;6.800;2023-12-07T05:52:40;37.10;;;24.60;;
14613;SDS011;7393;51.446;6.800;2023-12-07T05:55:07;39.50;;;24.07;;
14613;SDS011;7393;51.446;6.800;2023-12-07T05:57:34;38.33;;;24.43;;
14613;SDS011;7393;51.446;6.800;2023-12-07T06:00:01;40.23;;;23.40;;
14613;SDS011;7393;51.446;6.800;2023-12-07T06:02:28;42.17;;;25.60;;
14613;SDS011;7393;51.446;6.800;2023-12-07T06:04:55;42.53;;;23.97;;
14613;SDS011;7393;51.446;6.800;2023-12-07T06:07:22;42.03;;;25.27;;
14613;SDS011;7393;51.446;6.800;2023-12-07T06:09:50;36.87;;;24.00;;
14613;SDS011;7393;51.446;6.800;2023-12-07T06:12:17;36.93;;;22.50;;
14613;SDS011;7393;51.446;6.800;2023-12-07T06:14:43;36.57;;;21.70;;
14613;SDS011;7393;51.446;6.800;2023-12-07T06:17:10;37.10;;;22.23;;
14613;SDS011;7393;51.446;6.800;2023-12-07T06:19:37;34.90;;;22.33;;
14613;SDS011;7393;51.446;6.800;2023-12-07T06:22:04;34.80;;;23.47;;
14613;SDS011;7393;51.446;6.800;2023-12-07T06:24:33;34.17;;;21.70;;
14613;SDS011;7393;51.446;6.800;2023-12-07T06:27:02;35.47;;;21.63;;
14613;SDS011;7393;51.446;6.800;2023-12-07T06:29:30;34.17;;;22.53;;
14613;SDS011;7393;51.446;6.800;2023-12-07T06:31:57;33.60;;;21.47;;
14613;SDS011;7393;51.446;6.800;2023-12-07T06:34:25;35.33;;;22.73;;
14613;SDS011;7393;51.446;6.800;2023-12-07T06:36:53;34.80;;;22.40;;
14613;SDS011;7393;51.446;6.800;2023-12-07T06:39:19;34.63;;;21.37;;
14613;SDS011;7393;51.446;6.800;2023-12-07T06:41:46;33.03;;;21.10;;
14613;SDS011;7393;51.446;6.800;2023-12-07T06:44:14;31.37;;;20.90;;
14613;SDS011;7393;51.446;6.800;2023-12-07T06:46:41;34.33;;;21.77;;
14613;SDS011;7393;51.446;6.800;2023-12-07T06:49:08;32.27;;;21.93;;
14613;SDS011;7393;51.446;6.800;2023-12-07T06:51:35;35.87;;;21.40;;
14613;SDS011;7393;51.446;6.800;2023-12-07T06:54:01;32.80;;;20.93;;
14613;SDS011;7393;51.446;6.800;2023-12-07T06:56:28;30.83;;;19.57;;
14613;SDS011;7393;51.446;6.800;2023-12-07T06:58:55;31.17;;;20.47;;
14613;SDS011;7393;51.446;6.800;2023-12-07T07:01:23;32.63;;;22.40;;
14613;SDS011;7393;51.446;6.800;2023-12-07T07:03:50;31.53;;;19.83;;
14613;SDS011;7393;51.446;6.800;2023-12-07T07:06:17;29.17;;;19.43;;
14613;SDS011;7393;51.446;6.800;2023-12-07T07:08:44;31.37;;;20.23;;
14613;SDS011;7393;51.446;6.800;2023-12-07T07:11:12;31.03;;;20.00;;
14613;SDS011;7393;51.446;6.800;2023-12-07T07:13:40;32.87;;;20.43;;
14613;SDS011;7393;51.446;6.800;2023-12-07T07:16:07;34.80;;;20.97;;
14613;SDS011;7393;51.446;6.800;2023-12-07T07:18:36;31.57;;;19.57;;
14613;SDS011;7393;51.446;6.800;2023-12-07T07:21:04;29.73;;;19.77;;
14613;SDS011;7393;51.446;6.800;2023-12-07T07:23:30;33.17;;;20.03;;
14613;SDS011;7393;51.446;6.800;2023-12-07T07:25:57;33.27;;;19.93;;
14613;SDS011;7393;51.446;6.800;2023-12-07T07:28:24;28.03;;;19.53;;
14613;SDS011;7393;51.446;6.800;2023-12-07T07:30:51;31.33;;;20.13;;
14613;SDS011;7393;51.446;6.800;2023-12-07T07:33:18;32.50;;;21.20;;
14613;SDS011;7393;51.446;6.800;2023-12-07T07:35:46;33.33;;;21.10;;
14613;SDS011;7393;51.446;6.800;2023-12-07T07:38:13;30.83;;;20.77;;
14613;SDS011;7393;51.446;6.800;2023-12-07T07:40:40;35.07;;;21.57;;
14613;SDS011;7393;51.446;6.800;2023-12-07T07:43:07;36.73;;;21.80;;
14613;SDS011;7393;51.446;6.800;2023-12-07T07:45:33;34.70;;;22.87;;
14613;SDS011;7393;51.446;6.800;2023-12-07T07:48:01;37.57;;;22.00;;
14613;SDS011;7393;51.446;6.800;2023-12-07T07:50:27;38.63;;;22.60;;
14613;SDS011;7393;51.446;6.800;2023-12-07T07:52:55;35.10;;;21.53;;
14613;SDS011;7393;51.446;6.800;2023-12-07T07:55:22;38.60;;;22.50;;
14613;SDS011;7393;51.446;6.800;2023-12-07T07:57:49;32.93;;;21.03;;
14613;SDS011;7393;51.446;6.800;2023-12-07T08:00:16;33.77;;;21.13;;
14613;SDS011;7393;51.446;6.800;2023-12-07T08:02:44;30.47;;;20.07;;
14613;SDS011;7393;51.446;6.800;2023-12-07T08:05:11;34.07;;;21.00;;
14613;SDS011;7393;51.446;6.800;2023-12-07T08:07:38;34.57;;;21.17;;
14613;SDS011;7393;51.446;6.800;2023-12-07T08:10:07;34.37;;;20.83;;
14613;SDS011;7393;51.446;6.800;2023-12-07T08:12:34;29.30;;;18.93;;
14613;SDS011;7393;51.446;6.800;2023-12-07T08:15:02;28.97;;;19.03;;
14613;SDS011;7393;51.446;6.800;2023-12-07T08:17:35;31.87;;;19.23;;
14613;SDS011;7393;51.446;6.800;2023-12-07T08:20:03;32.77;;;19.50;;
14613;SDS011;7393;51.446;6.800;2023-12-07T08:22:31;34.07;;;19.10;;
14613;SDS011;7393;51.446;6.800;2023-12-07T08:24:58;32.13;;;20.37;;
14613;SDS011;7393;51.446;6.800;2023-12-07T08:27:27;34.03;;;20.17;;
14613;SDS011;7393;51.446;6.800;2023-12-07T08:29:54;29.23;;;18.43;;
14613;SDS011;7393;51.446;6.800;2023-12-07T08:32:20;29.00;;;18.77;;
14613;SDS011;7393;51.446;6.800;2023-12-07T08:34:50;27.70;;;18.23;;
14613;SDS011;7393;51.446;6.800;2023-12-07T08:37:17;25.33;;;18.40;;
14613;SDS011;7393;51.446;6.800;2023-12-07T08:39:44;26.43;;;17.00;;
14613;SDS011;7393;51.446;6.800;2023-12-07T08:42:11;25.27;;;16.87;;
14613;SDS011;7393;51.446;6.800;2023-12-07T08:44:39;25.37;;;16.83;;
14613;SDS011;7393;51.446;6.800;2023-12-07T08:47:06;33.40;;;18.73;;
14613;SDS011;7393;51.446;6.800;2023-12-07T08:49:33;26.87;;;17.50;;
14613;SDS011;7393;51.446;6.800;2023-12-07T08:52:00;26.40;;;17.37;;
14613;SDS011;7393;51.446;6.800;2023-12-07T08:54:28;26.63;;;17.00;;
14613;SDS011;7393;51.446;6.800;2023-12-07T08:56:54;29.53;;;16.70;;
14613;SDS011;7393;51.446;6.800;2023-12-07T08:59:21;26.10;;;16.53;;
14613;SDS011;7393;51.446;6.800;2023-12-07T09:01:49;24.93;;;16.20;;
14613;SDS011;7393;51.446;6.800;2023-12-07T09:04:16;26.53;;;16.90;;
14613;SDS011;7393;51.446;6.800;2023-12-07T09:06:43;22.97;;;15.60;;
14613;SDS011;7393;51.446;6.800;2023-12-07T09:09:10;25.50;;;16.70;;
14613;SDS011;7393;51.446;6.800;2023-12-07T09:11:37;23.50;;;15.60;;
14613;SDS011;7393;51.446;6.800;2023-12-07T09:14:04;23.33;;;15.73;;
14613;SDS011;7393;51.446;6.800;2023-12-07T09:16:31;23.13;;;15.50;;
14613;SDS011;7393;51.446;6.800;2023-12-07T09:18:59;24.87;;;15.43;;
14613;SDS011;7393;51.446;6.800;2023-12-07T09:21:25;21.90;;;15.10;;
14613;SDS011;7393;51.446;6.800;2023-12-07T09:23:52;22.17;;;15.70;;
14613;SDS011;7393;51.446;6.800;2023-12-07T09:26:19;21.27;;;14.80;;
14613;SDS011;7393;51.446;6.800;2023-12-07T09:28:46;23.03;;;14.60;;
14613;SDS011;7393;51.446;6.800;2023-12-07T09:31:13;21.97;;;14.87;;
14613;SDS011;7393;51.446;6.800;2023-12-07T09:33:41;23.83;;;15.03;;
14613;SDS011;7393;51.446;6.800;2023-12-07T09:36:10;22.23;;;14.40;;
14613;SDS011;7393;51.446;6.800;2023-12-07T09:38:36;19.60;;;13.70;;
14613;SDS011;7393;51.446;6.800;2023-12-07T09:41:03;20.40;;;13.43;;
14613;SDS011;7393;51.446;6.800;2023-12-07T09:43:30;21.70;;;14.80;;
14613;SDS011;7393;51.446;6.800;2023-12-07T09:45:57;21.57;;;13.83;;
14613;SDS011;7393;51.446;6.800;2023-12-07T09:48:24;20.87;;;13.53;;
14613;SDS011;7393;51.446;6.800;2023-12-07T09:50:52;17.87;;;12.43;;
14613;SDS011;7393;51.446;6.800;2023-12-07T09:53:22;20.87;;;13.17;;
14613;SDS011;7393;51.446;6.800;2023-12-07T09:55:49;19.60;;;12.77;;
14613;SDS011;7393;51.446;6.800;2023-12-07T09:58:15;18.27;;;12.23;;
14613;SDS011;7393;51.446;6.800;2023-12-07T10:00:42;20.77;;;12.83;;
14613;SDS011;7393;51.446;6.800;2023-12-07T10:03:09;20.30;;;12.40;;
14613;SDS011;7393;51.446;6.800;2023-12-07T10:05:53;14.07;;;11.03;;
14613;SDS011;7393;51.446;6.800;2023-12-07T10:08:26;16.50;;;12.30;;
14613;SDS011;7393;51.446;6.800;2023-12-07T10:13:37;17.67;;;11.43;;
14613;SDS011;7393;51.446;6.800;2023-12-07T10:16:06;17.67;;;11.67;;
14613;SDS011;7393;51.446;6.800;2023-12-07T10:18:34;16.13;;;10.80;;
14613;SDS011;7393;51.446;6.800;2023-12-07T10:21:01;21.03;;;12.27;;
14613;SDS011;7393;51.446;6.800;2023-12-07T10:23:30;15.07;;;11.10;;
14613;SDS011;7393;51.446;6.800;2023-12-07T10:25:58;14.87;;;11.67;;
14613;SDS011;7393;51.446;6.800;2023-12-07T10:28:25;18.27;;;11.37;;
14613;SDS011;7393;51.446;6.800;2023-12-07T10:30:52;17.00;;;11.33;;
14613;SDS011;7393;51.446;6.800;2023-12-07T10:33:19;16.67;;;11.23;;
14613;SDS011;7393;51.446;6.800;2023-12-07T10:35:46;14.37;;;11.17;;
14613;SDS011;7393;51.446;6.800;2023-12-07T10:38:15;15.10;;;10.57;;
14613;SDS011;7393;51.446;6.800;2023-12-07T10:40:44;19.20;;;11.10;;
14613;SDS011;7393;51.446;6.800;2023-12-07T10:43:12;21.03;;;10.67;;
14613;SDS011;7393;51.446;6.800;2023-12-07T10:45:41;16.43;;;11.30;;
14613;SDS011;7393;51.446;6.800;2023-12-07T10:48:10;19.60;;;11.60;;
14613;SDS011;7393;51.446;6.800;2023-12-07T10:50:38;16.83;;;11.50;;
14613;SDS011;7393;51.446;6.800;2023-12-07T10:53:09;14.93;;;10.50;;
14613;SDS011;7393;51.446;6.800;2023-12-07T10:55:40;18.87;;;11.53;;
14613;SDS011;7393;51.446;6.800;2023-12-07T10:58:12;17.07;;;12.00;;
14613;SDS011;7393;51.446;6.800;2023-12-07T11:00:41;17.03;;;11.00;;
14613;SDS011;7393;51.446;6.800;2023-12-07T11:03:11;15.43;;;10.57;;
14613;SDS011;7393;51.446;6.800;2023-12-07T11:05:41;16.43;;;11.63;;
14613;SDS011;7393;51.446;6.800;2023-12-07T11:08:09;20.57;;;11.57;;
14613;SDS011;7393;51.446;6.800;2023-12-07T11:10:45;15.67;;;11.73;;
14613;SDS011;7393;51.446;6.800;2023-12-07T11:13:17;17.10;;;11.93;;
14613;SDS011;7393;51.446;6.800;2023-12-07T11:15:48;16.47;;;11.20;;
14613;SDS011;7393;51.446;6.800;2023-12-07T11:18:15;15.37;;;10.53;;
14613;SDS011;7393;51.446;6.800;2023-12-07T11:20:42;16.57;;;9.90;;
14613;SDS011;7393;51.446;6.800;2023-12-07T11:23:11;16.87;;;10.57;;
14613;SDS011;7393;51.446;6.800;2023-12-07T11:25:37;13.97;;;10.50;;
14613;SDS011;7393;51.446;6.800;2023-12-07T11:28:06;15.67;;;10.33;;
14613;SDS011;7393;51.446;6.800;2023-12-07T11:30:34;16.47;;;10.27;;
14613;SDS011;7393;51.446;6.800;2023-12-07T11:33:02;17.87;;;10.63;;
14613;SDS011;7393;51.446;6.800;2023-12-07T11:35:30;14.30;;;10.23;;
14613;SDS011;7393;51.446;6.800;2023-12-07T11:38:01;15.83;;;10.83;;
14613;SDS011;7393;51.446;6.800;2023-12-07T11:40:30;13.90;;;10.83;;
14613;SDS011;7393;51.446;6.800;2023-12-07T11:42:58;17.60;;;11.17;;
14613;SDS011;7393;51.446;6.800;2023-12-07T11:45:46;14.63;;;10.93;;
14613;SDS011;7393;51.446;6.800;2023-12-07T11:48:15;15.60;;;10.80;;
14613;SDS011;7393;51.446;6.800;2023-12-07T11:50:55;14.60;;;10.17;;
14613;SDS011;7393;51.446;6.800;2023-12-07T11:53:26;14.63;;;9.93;;
14613;SDS011;7393;51.446;6.800;2023-12-07T11:55:55;14.43;;;10.10;;
14613;SDS011;7393;51.446;6.800;2023-12-07T11:58:23;14.30;;;10.07;;
14613;SDS011;7393;51.446;6.800;2023-12-07T12:00:52;15.17;;;10.07;;
14613;SDS011;7393;51.446;6.800;2023-12-07T12:03:21;16.17;;;10.40;;
14613;SDS011;7393;51.446;6.800;2023-12-07T12:05:48;14.37;;;10.17;;
14613;SDS011;7393;51.446;6.800;2023-12-07T12:08:15;15.23;;;10.77;;
14613;SDS011;7393;51.446;6.800;2023-12-07T12:10:42;16.60;;;10.70;;
14613;SDS011;7393;51.446;6.800;2023-12-07T12:13:09;12.57;;;9.40;;
14613;SDS011;7393;51.446;6.800;2023-12-07T12:15:37;13.43;;;10.90;;
14613;SDS011;7393;51.446;6.800;2023-12-07T12:18:06;16.57;;;10.47;;
14613;SDS011;7393;51.446;6.800;2023-12-07T12:20:33;17.63;;;9.77;;
14613;SDS011;7393;51.446;6.800;2023-12-07T12:23:00;16.80;;;9.70;;
14613;SDS011;7393;51.446;6.800;2023-12-07T12:25:28;14.40;;;10.20;;
14613;SDS011;7393;51.446;6.800;2023-12-07T12:27:56;15.07;;;10.17;;
14613;SDS011;7393;51.446;6.800;2023-12-07T12:30:26;13.90;;;10.40;;
14613;SDS011;7393;51.446;6.800;2023-12-07T12:32:53;16.33;;;9.53;;
14613;SDS011;7393;51.446;6.800;2023-12-07T12:35:21;17.17;;;9.33;;
14613;SDS011;7393;51.446;6.800;2023-12-07T12:37:49;13.27;;;9.73;;
14613;SDS011;7393;51.446;6.800;2023-12-07T12:40:16;17.27;;;9.00;;
14613;SDS011;7393;51.446;6.800;2023-12-07T12:42:44;12.93;;;9.47;;
14613;SDS011;7393;51.446;6.800;2023-12-07T12:45:12;14.17;;;9.57;;
14613;SDS011;7393;51.446;6.800;2023-12-07T12:47:39;12.70;;;9.00;;
14613;SDS011;7393;51.446;6.800;2023-12-07T12:50:06;15.07;;;10.10;;
14613;SDS011;7393;51.446;6.800;2023-12-07T12:52:36;14.43;;;8.97;;
14613;SDS011;7393;51.446;6.800;2023-12-07T12:55:06;14.87;;;9.13;;
14613;SDS011;7393;51.446;6.800;2023-12-07T12:57:35;11.57;;;8.80;;
14613;SDS011;7393;51.446;6.800;2023-12-07T13:00:02;17.83;;;9.90;;
14613;SDS011;7393;51.446;6.800;2023-12-07T13:02:32;13.70;;;9.23;;
14613;SDS011;7393;51.446;6.800;2023-12-07T13:04:58;15.07;;;9.73;;
14613;SDS011;7393;51.446;6.800;2023-12-07T13:07:25;20.67;;;9.60;;
14613;SDS011;7393;51.446;6.800;2023-12-07T13:09:53;21.63;;;9.67;;
14613;SDS011;7393;51.446;6.800;2023-12-07T13:12:21;18.07;;;10.00;;
14613;SDS011;7393;51.446;6.800;2023-12-07T13:14:48;13.23;;;8.93;;
14613;SDS011;7393;51.446;6.800;2023-12-07T13:17:15;17.90;;;9.33;;
14613;SDS011;7393;51.446;6.800;2023-12-07T13:19:42;13.83;;;8.47;;
14613;SDS011;7393;51.446;6.800;2023-12-07T13:22:09;12.10;;;8.33;;
14613;SDS011;7393;51.446;6.800;2023-12-07T13:24:35;12.50;;;8.57;;
14613;SDS011;7393;51.446;6.800;2023-12-07T13:27:04;14.67;;;8.57;;
14613;SDS011;7393;51.446;6.800;2023-12-07T13:29:31;11.70;;;7.77;;
14613;SDS011;7393;51.446;6.800;2023-12-07T13:31:58;14.50;;;8.63;;
14613;SDS011;7393;51.446;6.800;2023-12-07T13:34:24;13.47;;;8.37;;
14613;SDS011;7393;51.446;6.800;2023-12-07T13:36:52;11.03;;;8.23;;
14613;SDS011;7393;51.446;6.800;2023-12-07T13:39:19;15.20;;;8.60;;
14613;SDS011;7393;51.446;6.800;2023-12-07T13:41:46;14.80;;;7.80;;
14613;SDS011;7393;51.446;6.800;2023-12-07T13:44:16;16.40;;;8.07;;
14613;SDS011;7393;51.446;6.800;2023-12-07T13:46:43;12.67;;;9.03;;
14613;SDS011;7393;51.446;6.800;2023-12-07T13:49:10;12.70;;;8.00;;
14613;SDS011;7393;51.446;6.800;2023-12-07T13:51:39;13.43;;;8.03;;
14613;SDS011;7393;51.446;6.800;2023-12-07T13:54:06;13.27;;;7.57;;
14613;SDS011;7393;51.446;6.800;2023-12-07T13:56:33;13.07;;;7.50;;
14613;SDS011;7393;51.446;6.800;2023-12-07T13:59:00;13.83;;;7.60;;
14613;SDS011;7393;51.446;6.800;2023-12-07T14:01:28;12.77;;;7.87;;
14613;SDS011;7393;51.446;6.800;2023-12-07T14:03:56;15.73;;;8.03;;
14613;SDS011;7393;51.446;6.800;2023-12-07T14:06:24;11.10;;;7.37;;
14613;SDS011;7393;51.446;6.800;2023-12-07T14:08:51;11.10;;;7.30;;
14613;SDS011;7393;51.446;6.800;2023-12-07T14:11:18;10.47;;;7.17;;
14613;SDS011;7393;51.446;6.800;2023-12-07T14:13:45;13.47;;;8.00;;
14613;SDS011;7393;51.446;6.800;2023-12-07T14:16:13;16.33;;;9.40;;
14613;SDS011;7393;51.446;6.800;2023-12-07T14:18:41;14.37;;;8.00;;
14613;SDS011;7393;51.446;6.800;2023-12-07T14:21:08;11.33;;;8.00;;
14613;SDS011;7393;51.446;6.800;2023-12-07T14:23:35;10.63;;;7.57;;
14613;SDS011;7393;51.446;6.800;2023-12-07T14:26:02;14.90;;;7.43;;
14613;SDS011;7393;51.446;6.800;2023-12-07T14:28:29;16.17;;;8.07;;
14613;SDS011;7393;51.446;6.800;2023-12-07T14:30:58;16.03;;;8.10;;
14613;SDS011;7393;51.446;6.800;2023-12-07T14:33:25;20.10;;;7.83;;
14613;SDS011;7393;51.446;6.800;2023-12-07T14:35:53;10.23;;;7.57;;
14613;SDS011;7393;51.446;6.800;2023-12-07T14:38:20;12.97;;;8.30;;
14613;SDS011;7393;51.446;6.800;2023-12-07T14:40:49;11.80;;;6.83;;